createdAt,value
2023-09-02T00:00:51.451Z,16.20
2023-09-02T00:03:45.777Z,16.20
2023-09-02T00:06:19.509Z,16.20
2023-09-02T00:08:53.337Z,16.20
2023-09-02T00:11:27.426Z,16.22
2023-09-02T00:14:01.031Z,16.30
2023-09-02T00:16:35.013Z,16.30
2023-09-02T00:19:09.079Z,16.30
2023-09-02T00:21:43.095Z,16.40
2023-09-02T00:24:16.676Z,16.40
2023-09-02T00:26:50.874Z,16.40
2023-09-02T00:29:24.785Z,16.40
2023-09-02T00:31:58.437Z,16.30
2023-09-02T00:34:32.083Z,16.30
2023-09-02T00:37:05.795Z,16.20
2023-09-02T00:39:39.492Z,16.20
2023-09-02T00:42:19.128Z,16.18
2023-09-02T00:44:53.466Z,16.10
2023-09-02T00:47:28.750Z,16.10
2023-09-02T00:50:03.521Z,16.10
2023-09-02T00:52:39.123Z,16.00
2023-09-02T00:55:13.797Z,16.00
2023-09-02T00:57:48.806Z,16.00
2023-09-02T01:00:23.474Z,15.90
2023-09-02T01:02:57.565Z,15.88
2023-09-02T01:05:48.308Z,15.80
2023-09-02T01:08:22.801Z,15.80
2023-09-02T01:10:59.634Z,15.80
2023-09-02T01:13:34.579Z,15.80
2023-09-02T01:16:08.796Z,15.82
2023-09-02T01:18:42.982Z,15.82
2023-09-02T01:21:52.229Z,15.82
2023-09-02T01:25:03.364Z,15.80
2023-09-02T01:27:44.328Z,15.80
2023-09-02T01:30:23.623Z,15.80
2023-09-02T01:32:59.842Z,15.82
2023-09-02T01:35:43.112Z,15.82
2023-09-02T01:38:21.615Z,15.82
2023-09-02T01:40:58.572Z,15.82
2023-09-02T01:43:33.510Z,15.82
2023-09-02T01:46:09.046Z,15.80
2023-09-02T01:48:43.398Z,15.80
2023-09-02T01:51:19.037Z,15.90
2023-09-02T01:53:54.280Z,15.90
2023-09-02T01:56:29.861Z,16.00
2023-09-02T01:59:06.292Z,16.10
2023-09-02T02:01:41.444Z,16.10
2023-09-02T02:04:33.157Z,16.20
2023-09-02T02:07:15.040Z,16.28
2023-09-02T02:09:58.769Z,16.30
2023-09-02T02:12:34.926Z,16.38
2023-09-02T02:15:13.138Z,16.40
2023-09-02T02:17:46.979Z,16.40
2023-09-02T02:20:22.558Z,16.40
2023-09-02T02:22:56.915Z,16.40
2023-09-02T02:25:30.851Z,16.46
2023-09-02T02:28:06.670Z,16.50
2023-09-02T02:30:40.237Z,16.50
2023-09-02T02:33:14.756Z,16.50
2023-09-02T02:35:48.432Z,16.42
2023-09-02T02:38:22.576Z,16.40
2023-09-02T02:40:57.174Z,16.40
2023-09-02T02:43:30.842Z,16.34
2023-09-02T02:46:04.465Z,16.30
2023-09-02T02:48:38.243Z,16.30
2023-09-02T02:51:12.210Z,16.30
2023-09-02T02:53:46.589Z,16.30
2023-09-02T02:56:25.402Z,16.30
2023-09-02T02:59:00.925Z,16.30
2023-09-02T03:01:34.627Z,16.26
2023-09-02T03:04:09.786Z,16.20
2023-09-02T03:06:45.854Z,16.20
2023-09-02T03:09:19.732Z,16.22
2023-09-02T03:11:54.572Z,16.20
2023-09-02T03:14:28.185Z,16.20
2023-09-02T03:17:02.542Z,16.20
2023-09-02T03:19:38.708Z,16.18
2023-09-02T03:22:12.833Z,16.10
2023-09-02T03:24:48.682Z,16.10
2023-09-02T03:27:24.628Z,16.10
2023-09-02T03:29:59.436Z,16.10
2023-09-02T03:32:33.345Z,16.08
2023-09-02T03:35:09.210Z,16.00
2023-09-02T03:37:45.252Z,16.00
2023-09-02T03:40:19.412Z,16.00
2023-09-02T03:42:52.954Z,16.02
2023-09-02T03:45:28.677Z,16.10
2023-09-02T03:48:02.267Z,16.10
2023-09-02T03:51:05.198Z,16.18
2023-09-02T03:53:41.086Z,16.20
2023-09-02T03:56:15.092Z,16.20
2023-09-02T03:58:48.852Z,16.20
2023-09-02T04:01:23.528Z,16.30
2023-09-02T04:04:04.619Z,16.30
2023-09-02T04:06:39.416Z,16.40
2023-09-02T04:09:13.983Z,16.40
2023-09-02T04:11:50.882Z,16.50
2023-09-02T04:14:38.678Z,16.50
2023-09-02T04:17:14.217Z,16.50
2023-09-02T04:19:51.835Z,16.40
2023-09-02T04:22:27.369Z,16.40
2023-09-02T04:25:22.052Z,16.40
2023-09-02T04:27:57.172Z,16.44
2023-09-02T04:30:31.926Z,16.50
2023-09-02T04:33:08.148Z,16.50
2023-09-02T04:35:45.509Z,16.58
2023-09-02T04:38:26.413Z,16.60
2023-09-02T04:41:06.193Z,16.66
2023-09-02T04:43:42.080Z,16.70
2023-09-02T04:46:16.980Z,16.70
2023-09-02T04:48:52.115Z,16.80
2023-09-02T04:51:27.199Z,16.80
2023-09-02T04:54:01.940Z,16.80
2023-09-02T04:56:36.063Z,16.80
2023-09-02T04:59:09.809Z,16.80
2023-09-02T05:01:44.406Z,16.84
2023-09-02T05:04:18.407Z,16.82
2023-09-02T05:06:52.146Z,16.80
2023-09-02T05:09:28.417Z,16.80
2023-09-02T05:12:03.044Z,16.80
2023-09-02T05:14:40.082Z,16.80
2023-09-02T05:17:17.029Z,16.80
2023-09-02T05:19:51.141Z,16.70
2023-09-02T05:22:25.292Z,16.70
2023-09-02T05:24:59.813Z,16.64
2023-09-02T05:27:39.352Z,16.68
2023-09-02T05:30:15.241Z,16.70
2023-09-02T05:32:49.072Z,16.88
2023-09-02T05:35:22.757Z,17.06
2023-09-02T05:38:00.445Z,17.24
2023-09-02T05:40:55.056Z,17.50
2023-09-02T05:43:30.324Z,17.80
2023-09-02T05:46:04.979Z,18.00
2023-09-02T05:48:38.607Z,18.28
2023-09-02T05:51:12.376Z,18.50
2023-09-02T05:53:48.575Z,18.68
2023-09-02T05:56:22.835Z,18.80
2023-09-02T05:58:57.447Z,18.90
2023-09-02T06:01:31.314Z,18.90
2023-09-02T06:07:47.129Z,18.90
2023-09-02T06:10:35.437Z,18.90
2023-09-02T06:13:09.288Z,19.00
2023-09-02T06:16:01.402Z,19.04
2023-09-02T06:18:37.874Z,19.00
2023-09-02T06:22:00.497Z,19.00
2023-09-02T06:24:45.453Z,19.10
2023-09-02T06:30:47.029Z,19.00
2023-09-02T06:33:26.375Z,19.10
2023-09-02T06:36:41.557Z,19.20
2023-09-02T06:39:47.195Z,19.30
2023-09-02T06:42:21.523Z,19.30
2023-09-02T06:45:19.210Z,19.40
2023-09-02T06:47:57.881Z,19.40
2023-09-02T06:50:49.634Z,19.40
2023-09-02T06:53:36.922Z,19.50
2023-09-02T06:56:19.415Z,19.60
2023-09-02T06:58:54.151Z,19.62
2023-09-02T07:01:29.763Z,19.70
2023-09-02T07:04:03.571Z,19.70
2023-09-02T07:06:37.331Z,19.68
2023-09-02T07:09:11.578Z,19.50
2023-09-02T07:11:45.849Z,19.50
2023-09-02T07:14:23.021Z,19.40
2023-09-02T07:16:59.127Z,19.38
2023-09-02T07:19:33.011Z,19.40
2023-09-02T07:22:06.772Z,19.50
2023-09-02T07:24:40.580Z,19.60
2023-09-02T07:27:14.260Z,19.70
2023-09-02T07:29:48.155Z,19.70
2023-09-02T07:32:21.965Z,19.88
2023-09-02T07:34:55.531Z,19.90
2023-09-02T07:37:29.532Z,20.06
2023-09-02T07:40:03.191Z,20.20
2023-09-02T07:42:37.868Z,20.20
2023-09-02T07:45:14.771Z,20.30
2023-09-02T07:47:48.337Z,20.60
2023-09-02T07:50:22.141Z,20.90
2023-09-02T07:52:55.930Z,21.10
2023-09-02T07:55:30.933Z,21.22
2023-09-02T07:58:05.231Z,21.40
2023-09-02T08:00:40.952Z,21.50
2023-09-02T08:03:14.774Z,21.70
2023-09-02T08:05:48.636Z,21.82
2023-09-02T08:08:22.456Z,21.90
2023-09-02T08:11:06.825Z,21.90
2023-09-02T08:13:40.595Z,22.20
2023-09-02T08:16:14.830Z,22.50
2023-09-02T08:18:48.619Z,22.60
2023-09-02T08:21:22.334Z,22.60
2023-09-02T08:23:56.502Z,22.40
2023-09-02T08:27:24.073Z,22.06
2023-09-02T08:30:00.814Z,21.50
2023-09-02T08:32:51.781Z,21.50
2023-09-02T08:35:59.239Z,21.94
2023-09-02T08:38:33.926Z,22.30
2023-09-02T08:41:18.707Z,22.30
2023-09-02T08:44:43.712Z,22.30
2023-09-02T08:50:15.595Z,22.60
2023-09-02T08:53:07.549Z,22.80
2023-09-02T08:55:59.382Z,22.76
2023-09-02T08:58:45.990Z,22.40
2023-09-02T09:01:25.982Z,22.10
2023-09-02T09:04:06.398Z,22.00
2023-09-02T09:06:46.079Z,22.30
2023-09-02T09:09:24.126Z,22.60
2023-09-02T09:12:03.127Z,22.70
2023-09-02T09:14:48.046Z,22.92
2023-09-02T09:17:27.032Z,23.40
2023-09-02T09:20:04.928Z,23.50
2023-09-02T09:22:45.538Z,23.30
2023-09-02T09:25:20.964Z,22.98
2023-09-02T09:28:08.224Z,22.70
2023-09-02T09:30:42.680Z,22.50
2023-09-02T09:33:20.822Z,22.30
2023-09-02T09:36:11.687Z,22.30
2023-09-02T09:39:02.355Z,22.30
2023-09-02T09:41:46.711Z,22.10
2023-09-02T09:44:21.957Z,22.02
2023-09-02T09:47:02.380Z,22.16
2023-09-02T09:52:33.523Z,23.30
2023-09-02T09:55:49.669Z,23.82
2023-09-02T09:58:29.129Z,24.10
2023-09-02T10:01:08.282Z,23.90
2023-09-02T10:03:50.713Z,23.86
2023-09-02T10:06:25.902Z,23.80
2023-09-02T10:09:02.208Z,23.80
2023-09-02T10:11:51.898Z,23.60
2023-09-02T10:14:29.846Z,23.40
2023-09-02T10:17:37.766Z,23.44
2023-09-02T10:20:14.118Z,23.50
2023-09-02T10:22:55.440Z,23.60
2023-09-02T10:25:51.691Z,23.50
2023-09-02T10:28:42.650Z,23.40
2023-09-02T10:31:30.542Z,23.30
2023-09-02T10:34:22.366Z,23.50
2023-09-02T10:37:13.611Z,23.70
2023-09-02T10:40:10.185Z,24.14
2023-09-02T10:42:44.831Z,24.68
2023-09-02T10:45:20.046Z,25.20
2023-09-02T10:48:12.739Z,25.70
2023-09-02T10:50:48.901Z,25.92
2023-09-02T10:53:42.836Z,26.40
2023-09-02T10:56:31.729Z,26.18
2023-09-02T10:59:07.898Z,25.60
2023-09-02T11:01:54.858Z,25.08
2023-09-02T11:05:17.820Z,24.58
2023-09-02T11:07:54.962Z,24.02
2023-09-02T11:10:59.445Z,23.72
2023-09-02T11:13:33.536Z,23.70
2023-09-02T11:16:31.728Z,23.90
2023-09-02T11:19:10.286Z,24.24
2023-09-02T11:21:49.608Z,24.66
2023-09-02T11:24:25.825Z,25.10
2023-09-02T11:27:02.832Z,25.60
2023-09-02T11:29:37.224Z,26.02
2023-09-02T11:32:11.879Z,27.14
2023-09-02T11:34:49.949Z,27.92
2023-09-02T11:37:35.757Z,28.30
2023-09-02T11:40:19.966Z,28.40
2023-09-02T11:42:56.160Z,28.80
2023-09-02T11:45:33.681Z,29.42
2023-09-02T11:48:10.238Z,29.94
2023-09-02T11:50:44.569Z,30.16
2023-09-02T11:53:18.994Z,29.70
2023-09-02T11:55:53.573Z,29.20
2023-09-02T11:58:28.095Z,28.66
2023-09-02T12:01:02.921Z,27.90
2023-09-02T12:03:36.633Z,27.40
2023-09-02T12:06:10.814Z,28.24
2023-09-02T12:08:46.810Z,29.12
2023-09-02T12:11:21.586Z,29.82
2023-09-02T12:13:56.462Z,30.00
2023-09-02T12:16:31.795Z,30.10
2023-09-02T12:19:05.873Z,30.46
2023-09-02T12:21:40.170Z,30.68
2023-09-02T12:24:17.354Z,30.90
2023-09-02T12:26:53.374Z,30.88
2023-09-02T12:29:28.345Z,31.16
2023-09-02T12:32:05.458Z,31.30
2023-09-02T12:35:02.295Z,31.08
2023-09-02T12:37:36.164Z,29.90
2023-09-02T12:40:18.987Z,29.74
2023-09-02T12:43:00.353Z,29.90
2023-09-02T12:45:45.983Z,30.42
2023-09-02T12:48:36.793Z,31.06
2023-09-02T12:51:21.209Z,31.54
2023-09-02T12:53:54.919Z,31.90
2023-09-02T12:56:29.215Z,32.00
2023-09-02T12:59:02.805Z,31.78
2023-09-02T13:01:44.070Z,31.28
2023-09-02T13:04:17.829Z,30.16
2023-09-02T13:06:53.281Z,29.08
2023-09-02T13:09:30.132Z,28.30
2023-09-02T13:12:05.689Z,28.06
2023-09-02T13:14:41.006Z,27.64
2023-09-02T13:17:25.068Z,27.20
2023-09-02T13:19:58.978Z,27.58
2023-09-02T13:22:33.106Z,28.22
2023-09-02T13:25:11.556Z,28.46
2023-09-02T13:27:46.001Z,28.00
2023-09-02T13:30:27.837Z,27.60
2023-09-02T13:33:02.984Z,27.26
2023-09-02T13:35:45.348Z,27.10
2023-09-02T13:38:53.302Z,27.10
2023-09-02T13:41:57.084Z,27.82
2023-09-02T13:44:44.961Z,28.86
2023-09-02T13:47:21.381Z,29.74
2023-09-02T13:50:01.274Z,30.14
2023-09-02T13:52:36.956Z,29.84
2023-09-02T13:55:35.042Z,29.60
2023-09-02T13:58:17.405Z,29.50
2023-09-02T14:01:01.468Z,29.40
2023-09-02T14:03:37.192Z,29.52
2023-09-02T14:06:12.744Z,30.18
2023-09-02T14:08:52.688Z,29.90
2023-09-02T14:11:26.705Z,29.74
2023-09-02T14:14:04.036Z,29.90
2023-09-02T14:16:38.363Z,29.90
2023-09-02T14:19:14.925Z,29.70
2023-09-02T14:21:48.623Z,29.94
2023-09-02T14:24:22.658Z,29.70
2023-09-02T14:27:12.681Z,29.40
2023-09-02T14:29:55.507Z,29.00
2023-09-02T14:32:30.433Z,28.58
2023-09-02T14:35:04.088Z,28.60
2023-09-02T14:37:37.761Z,28.70
2023-09-02T14:40:12.807Z,28.80
2023-09-02T14:42:46.886Z,29.08
2023-09-02T14:45:20.595Z,29.00
2023-09-02T14:47:54.353Z,28.80
2023-09-02T14:50:30.054Z,28.70
2023-09-02T14:53:05.459Z,28.34
2023-09-02T14:55:40.056Z,27.86
2023-09-02T14:58:16.756Z,27.42
2023-09-02T15:00:55.081Z,27.20
2023-09-02T15:03:35.229Z,27.06
2023-09-02T15:06:09.380Z,26.90
2023-09-02T15:08:43.737Z,26.70
2023-09-02T15:11:19.236Z,26.60
2023-09-02T15:13:54.438Z,26.40
2023-09-02T15:16:28.148Z,26.14
2023-09-02T15:19:28.980Z,25.94
2023-09-02T15:22:06.242Z,25.80
2023-09-02T15:24:40.433Z,25.80
2023-09-02T15:27:22.017Z,25.70
2023-09-02T15:29:58.097Z,25.56
2023-09-02T15:32:31.954Z,25.30
2023-09-02T15:35:07.288Z,25.10
2023-09-02T15:37:41.774Z,24.90
2023-09-02T15:40:40.905Z,24.70
2023-09-02T15:43:25.249Z,24.48
2023-09-02T15:46:07.260Z,24.30
2023-09-02T15:49:04.358Z,24.20
2023-09-02T15:51:52.411Z,24.08
2023-09-02T15:54:26.181Z,24.00
2023-09-02T15:56:59.746Z,23.90
2023-09-02T15:59:33.329Z,23.70
2023-09-02T16:02:07.243Z,23.60
2023-09-02T16:04:41.010Z,23.40
2023-09-02T16:07:14.770Z,23.30
2023-09-02T16:09:48.335Z,23.20
2023-09-02T16:12:21.867Z,23.08
2023-09-02T16:14:56.462Z,23.00
2023-09-02T16:17:31.324Z,22.90
2023-09-02T16:20:05.748Z,22.70
2023-09-02T16:22:39.723Z,22.60
2023-09-02T16:25:15.039Z,22.50
2023-09-02T16:27:49.418Z,22.40
2023-09-02T16:30:24.218Z,22.30
2023-09-02T16:32:58.913Z,22.20
2023-09-02T16:35:33.887Z,22.10
2023-09-02T16:38:07.481Z,22.00
2023-09-02T16:40:41.189Z,21.90
2023-09-02T16:43:19.445Z,21.80
2023-09-02T16:45:56.337Z,21.70
2023-09-02T16:48:30.979Z,21.60
2023-09-02T16:51:04.683Z,21.60
2023-09-02T16:53:41.687Z,21.50
2023-09-02T16:56:16.003Z,21.50
2023-09-02T16:58:49.657Z,21.50
2023-09-02T17:01:26.214Z,21.50
2023-09-02T17:04:00.214Z,21.40
2023-09-02T17:06:37.799Z,21.30
2023-09-02T17:09:12.968Z,21.28
2023-09-02T17:11:46.650Z,21.20
2023-09-02T17:14:21.036Z,21.10
2023-09-02T17:16:55.698Z,21.10
2023-09-02T17:19:30.230Z,21.00
2023-09-02T17:22:05.057Z,20.94
2023-09-02T17:24:39.841Z,20.88
2023-09-02T17:27:22.132Z,20.80
2023-09-02T17:29:56.269Z,20.64
2023-09-02T17:32:29.880Z,20.50
2023-09-02T17:35:03.400Z,20.40
2023-09-02T17:37:38.058Z,20.30
2023-09-02T17:40:14.731Z,20.20
2023-09-02T17:42:49.293Z,20.10
2023-09-02T17:45:23.005Z,20.00
2023-09-02T17:47:56.775Z,19.90
2023-09-02T17:50:30.602Z,19.74
2023-09-02T17:53:04.423Z,19.60
2023-09-02T17:55:38.032Z,19.50
2023-09-02T17:58:11.778Z,19.40
2023-09-02T18:00:45.407Z,19.30
2023-09-02T18:03:18.974Z,19.20
2023-09-02T18:05:53.247Z,19.10
2023-09-02T18:08:34.496Z,19.10
2023-09-02T18:11:20.436Z,19.00
2023-09-02T18:13:53.986Z,19.00
2023-09-02T18:16:28.632Z,18.96
2023-09-02T18:19:02.506Z,18.90
2023-09-02T18:25:40.624Z,18.88
2023-09-02T18:29:39.907Z,18.80
2023-09-02T18:32:46.964Z,18.80
2023-09-02T18:35:32.869Z,18.80
2023-09-02T18:38:16.762Z,18.70
2023-09-02T18:41:26.930Z,18.70
2023-09-02T18:44:11.815Z,18.70
2023-09-02T18:46:52.952Z,18.70
2023-09-02T18:49:27.236Z,18.70
2023-09-02T18:52:01.185Z,18.60
2023-09-02T18:54:35.031Z,18.52
2023-09-02T18:57:08.933Z,18.50
2023-09-02T18:59:42.482Z,18.40
2023-09-02T19:02:15.997Z,18.40
2023-09-02T19:04:49.500Z,18.30
2023-09-02T19:07:23.445Z,18.30
2023-09-02T19:09:57.153Z,18.30
2023-09-02T19:12:31.893Z,18.20
2023-09-02T19:15:12.252Z,18.20
2023-09-02T19:17:45.877Z,18.16
2023-09-02T19:20:19.627Z,18.16
2023-09-02T19:22:53.273Z,18.10
2023-09-02T19:25:29.727Z,18.10
2023-09-02T19:28:03.400Z,18.20
2023-09-02T19:30:37.249Z,18.20
2023-09-02T19:33:11.228Z,18.20
2023-09-02T19:35:44.961Z,18.20
2023-09-02T19:38:18.972Z,18.20
2023-09-02T19:40:53.073Z,18.20
2023-09-02T19:43:27.188Z,18.20
2023-09-02T19:46:07.221Z,18.10
2023-09-02T19:48:40.798Z,18.10
2023-09-02T19:51:18.762Z,18.10
2023-09-02T19:53:53.486Z,18.20
2023-09-02T19:56:29.025Z,18.20
2023-09-02T19:59:10.018Z,18.20
2023-09-02T20:01:43.999Z,18.30
2023-09-02T20:04:17.697Z,18.30
2023-09-02T20:06:53.499Z,18.30
2023-09-02T20:09:27.310Z,18.34
2023-09-02T20:12:00.941Z,18.40
2023-09-02T20:14:36.097Z,18.40
2023-09-02T20:17:09.949Z,18.40
2023-09-02T20:19:43.591Z,18.40
2023-09-02T20:22:17.536Z,18.40
2023-09-02T20:25:08.591Z,18.40
2023-09-02T20:27:43.478Z,18.40
2023-09-02T20:30:17.869Z,18.44
2023-09-02T20:32:51.923Z,18.50
2023-09-02T20:35:26.021Z,18.50
2023-09-02T20:37:59.896Z,18.50
2023-09-02T20:40:39.367Z,18.50
2023-09-02T20:43:42.865Z,18.50
2023-09-02T20:46:18.082Z,18.50
2023-09-02T20:48:52.720Z,18.60
2023-09-02T20:51:26.310Z,18.60
2023-09-02T20:54:02.712Z,18.50
2023-09-02T20:56:36.866Z,18.50
2023-09-02T20:59:10.456Z,18.50
2023-09-02T21:01:46.052Z,18.50
2023-09-02T21:04:19.982Z,18.50
2023-09-02T21:06:55.196Z,18.50
2023-09-02T21:09:28.798Z,18.50
2023-09-02T21:12:02.541Z,18.40
2023-09-02T21:14:36.200Z,18.40
2023-09-02T21:17:10.151Z,18.36
2023-09-02T21:19:43.777Z,18.38
2023-09-02T21:22:17.679Z,18.40
2023-09-02T21:24:55.348Z,18.40
2023-09-02T21:27:29.094Z,18.50
2023-09-02T21:30:06.098Z,18.50
2023-09-02T21:32:45.153Z,18.50
2023-09-02T21:35:19.700Z,18.50
2023-09-02T21:37:53.670Z,18.52
2023-09-02T21:40:27.471Z,18.50
2023-09-02T21:43:01.133Z,18.50
2023-09-02T21:45:35.317Z,18.50
2023-09-02T21:48:10.080Z,18.50
2023-09-02T21:50:43.720Z,18.50
2023-09-02T21:53:17.195Z,18.50
2023-09-02T21:55:54.353Z,18.50
2023-09-02T21:58:30.483Z,18.50
2023-09-02T22:01:07.917Z,18.50
2023-09-02T22:03:42.091Z,18.50
2023-09-02T22:06:17.892Z,18.40
2023-09-02T22:08:52.952Z,18.40
2023-09-02T22:11:27.556Z,18.30
2023-09-02T22:14:01.301Z,18.30
2023-09-02T22:16:40.407Z,18.30
2023-09-02T22:19:14.550Z,18.20
2023-09-02T22:21:48.573Z,18.20
2023-09-02T22:24:22.114Z,18.20
2023-09-02T22:26:57.689Z,18.10
2023-09-02T22:29:31.228Z,18.10
2023-09-02T22:32:05.207Z,18.10
2023-09-02T22:34:38.839Z,18.10
2023-09-02T22:37:12.497Z,18.20
2023-09-02T22:39:46.056Z,18.20
2023-09-02T22:42:19.638Z,18.20
2023-09-02T22:44:53.462Z,18.20
2023-09-02T22:47:27.366Z,18.26
2023-09-02T22:50:01.774Z,18.30
2023-09-02T22:52:35.305Z,18.30
2023-09-02T22:55:12.023Z,18.30
2023-09-02T22:57:49.835Z,18.30
2023-09-02T23:00:24.670Z,18.30
2023-09-02T23:02:59.517Z,18.30
2023-09-02T23:05:34.791Z,18.30
2023-09-02T23:08:09.656Z,18.22
2023-09-02T23:10:43.097Z,18.20
2023-09-02T23:13:16.637Z,18.20
2023-09-02T23:15:50.789Z,18.16
2023-09-02T23:18:24.857Z,18.10
2023-09-02T23:20:58.737Z,18.10
2023-09-02T23:23:32.466Z,18.10
2023-09-02T23:26:06.065Z,18.10
2023-09-02T23:28:40.903Z,18.10
2023-09-02T23:31:14.781Z,18.00
2023-09-02T23:33:48.719Z,18.00
2023-09-02T23:36:24.427Z,17.92
2023-09-02T23:38:57.940Z,17.90
2023-09-02T23:41:32.665Z,17.90
2023-09-02T23:44:06.917Z,17.80
2023-09-02T23:46:40.513Z,17.80
2023-09-02T23:49:14.165Z,17.70
2023-09-02T23:51:47.603Z,17.70
2023-09-02T23:54:21.179Z,17.62
2023-09-02T23:56:54.953Z,17.60
2023-09-02T23:59:29.669Z,17.50
